sensor_id;sensor_type;location;lat;lon;timestamp;P1;durP1;ratioP1;P2;durP2;ratioP2
63016;SDS011;50274;45.640;11.756;2024-03-23T00:53:47;36.00;;;22.13;;
63016;SDS011;50274;45.640;11.756;2024-03-23T00:56:13;34.20;;;22.87;;
63016;SDS011;50274;45.640;11.756;2024-03-23T00:58:38;33.35;;;21.52;;
63016;SDS011;50274;45.640;11.756;2024-03-23T01:01:04;33.13;;;21.73;;
63016;SDS011;50274;45.640;11.756;2024-03-23T01:03:30;33.03;;;21.67;;
63016;SDS011;50274;45.640;11.756;2024-03-23T01:06:02;29.40;;;19.43;;
63016;SDS011;50274;45.640;11.756;2024-03-23T01:08:29;33.38;;;21.65;;
63016;SDS011;50274;45.640;11.756;2024-03-23T01:10:58;30.52;;;20.27;;
63016;SDS011;50274;45.640;11.756;2024-03-23T01:13:25;33.70;;;20.02;;
63016;SDS011;50274;45.640;11.756;2024-03-23T01:15:51;31.17;;;19.87;;
63016;SDS011;50274;45.640;11.756;2024-03-23T01:18:18;30.25;;;20.08;;
63016;SDS011;50274;45.640;11.756;2024-03-23T01:20:44;34.00;;;20.77;;
63016;SDS011;50274;45.640;11.756;2024-03-23T01:23:10;32.30;;;19.48;;
63016;SDS011;50274;45.640;11.756;2024-03-23T01:25:36;36.08;;;21.70;;
63016;SDS011;50274;45.640;11.756;2024-03-23T01:28:02;36.53;;;22.23;;
63016;SDS011;50274;45.640;11.756;2024-03-23T01:30:28;30.60;;;20.40;;
63016;SDS011;50274;45.640;11.756;2024-03-23T01:32:55;34.97;;;21.05;;
63016;SDS011;50274;45.640;11.756;2024-03-23T01:35:21;34.20;;;22.08;;
63016;SDS011;50274;45.640;11.756;2024-03-23T01:37:47;33.30;;;20.37;;
63016;SDS011;50274;45.640;11.756;2024-03-23T01:40:13;30.42;;;19.92;;
63016;SDS011;50274;45.640;11.756;2024-03-23T01:42:41;31.47;;;20.97;;
63016;SDS011;50274;45.640;11.756;2024-03-23T01:45:07;30.92;;;20.42;;
63016;SDS011;50274;45.640;11.756;2024-03-23T01:47:35;34.90;;;20.73;;
63016;SDS011;50274;45.640;11.756;2024-03-23T01:50:01;33.95;;;23.98;;
63016;SDS011;50274;45.640;11.756;2024-03-23T01:52:27;32.10;;;21.08;;
63016;SDS011;50274;45.640;11.756;2024-03-23T01:54:53;33.60;;;21.87;;
63016;SDS011;50274;45.640;11.756;2024-03-23T01:57:19;32.20;;;20.88;;
63016;SDS011;50274;45.640;11.756;2024-03-23T01:59:48;32.88;;;20.83;;
63016;SDS011;50274;45.640;11.756;2024-03-23T02:02:14;34.72;;;20.73;;
63016;SDS011;50274;45.640;11.756;2024-03-23T02:04:42;32.17;;;19.97;;
63016;SDS011;50274;45.640;11.756;2024-03-23T02:07:08;34.58;;;19.65;;
63016;SDS011;50274;45.640;11.756;2024-03-23T02:09:34;34.47;;;21.13;;
63016;SDS011;50274;45.640;11.756;2024-03-23T02:12:01;37.73;;;21.10;;
63016;SDS011;50274;45.640;11.756;2024-03-23T02:14:28;34.40;;;22.07;;
63016;SDS011;50274;45.640;11.756;2024-03-23T02:16:53;33.13;;;21.40;;
63016;SDS011;50274;45.640;11.756;2024-03-23T02:19:19;36.47;;;20.53;;
63016;SDS011;50274;45.640;11.756;2024-03-23T02:21:45;31.77;;;20.23;;
63016;SDS011;50274;45.640;11.756;2024-03-23T02:24:12;34.70;;;21.10;;
63016;SDS011;50274;45.640;11.756;2024-03-23T02:26:38;33.70;;;20.95;;
63016;SDS011;50274;45.640;11.756;2024-03-23T02:29:03;33.37;;;20.67;;
63016;SDS011;50274;45.640;11.756;2024-03-23T02:31:30;35.78;;;20.33;;
63016;SDS011;50274;45.640;11.756;2024-03-23T02:33:55;32.10;;;20.63;;
63016;SDS011;50274;45.640;11.756;2024-03-23T02:36:21;34.83;;;21.33;;
63016;SDS011;50274;45.640;11.756;2024-03-23T02:38:47;30.63;;;20.40;;
63016;SDS011;50274;45.640;11.756;2024-03-23T02:41:13;30.93;;;19.40;;
63016;SDS011;50274;45.640;11.756;2024-03-23T02:43:38;32.83;;;19.83;;
63016;SDS011;50274;45.640;11.756;2024-03-23T02:46:04;31.02;;;19.15;;
63016;SDS011;50274;45.640;11.756;2024-03-23T02:48:30;29.63;;;17.83;;
63016;SDS011;50274;45.640;11.756;2024-03-23T02:50:56;29.55;;;18.90;;
63016;SDS011;50274;45.640;11.756;2024-03-23T02:53:22;31.60;;;19.27;;
63016;SDS011;50274;45.640;11.756;2024-03-23T02:55:47;31.23;;;18.40;;
63016;SDS011;50274;45.640;11.756;2024-03-23T02:58:13;32.25;;;18.83;;
63016;SDS011;50274;45.640;11.756;2024-03-23T03:00:39;30.60;;;19.87;;
63016;SDS011;50274;45.640;11.756;2024-03-23T03:03:05;28.58;;;18.98;;
63016;SDS011;50274;45.640;11.756;2024-03-23T03:05:32;29.25;;;18.58;;
63016;SDS011;50274;45.640;11.756;2024-03-23T03:07:58;31.50;;;19.63;;
63016;SDS011;50274;45.640;11.756;2024-03-23T03:10:23;27.60;;;18.75;;
63016;SDS011;50274;45.640;11.756;2024-03-23T03:12:49;27.50;;;17.50;;
63016;SDS011;50274;45.640;11.756;2024-03-23T03:15:15;32.33;;;18.33;;
63016;SDS011;50274;45.640;11.756;2024-03-23T03:17:41;28.83;;;17.27;;
63016;SDS011;50274;45.640;11.756;2024-03-23T03:20:07;24.53;;;15.87;;
63016;SDS011;50274;45.640;11.756;2024-03-23T03:22:38;30.33;;;17.40;;
63016;SDS011;50274;45.640;11.756;2024-03-23T03:25:04;26.75;;;18.50;;
63016;SDS011;50274;45.640;11.756;2024-03-23T03:27:32;23.98;;;15.80;;
63016;SDS011;50274;45.640;11.756;2024-03-23T03:29:59;27.10;;;17.30;;
63016;SDS011;50274;45.640;11.756;2024-03-23T03:32:27;25.63;;;16.57;;
63016;SDS011;50274;45.640;11.756;2024-03-23T03:34:54;27.88;;;17.30;;
63016;SDS011;50274;45.640;11.756;2024-03-23T03:37:20;28.45;;;17.30;;
63016;SDS011;50274;45.640;11.756;2024-03-23T03:39:45;26.23;;;16.40;;
63016;SDS011;50274;45.640;11.756;2024-03-23T03:42:11;29.00;;;16.63;;
63016;SDS011;50274;45.640;11.756;2024-03-23T03:44:37;30.77;;;17.38;;
63016;SDS011;50274;45.640;11.756;2024-03-23T03:47:04;28.97;;;17.33;;
63016;SDS011;50274;45.640;11.756;2024-03-23T03:49:31;27.27;;;17.90;;
63016;SDS011;50274;45.640;11.756;2024-03-23T03:51:57;26.23;;;16.70;;
63016;SDS011;50274;45.640;11.756;2024-03-23T03:54:23;27.20;;;16.37;;
63016;SDS011;50274;45.640;11.756;2024-03-23T03:56:48;26.90;;;17.83;;
63016;SDS011;50274;45.640;11.756;2024-03-23T03:59:15;26.02;;;16.88;;
63016;SDS011;50274;45.640;11.756;2024-03-23T04:01:41;25.58;;;15.90;;
63016;SDS011;50274;45.640;11.756;2024-03-23T04:04:06;27.17;;;16.87;;
63016;SDS011;50274;45.640;11.756;2024-03-23T04:06:32;27.88;;;16.13;;
63016;SDS011;50274;45.640;11.756;2024-03-23T04:08:58;28.60;;;15.03;;
63016;SDS011;50274;45.640;11.756;2024-03-23T04:11:24;24.85;;;15.38;;
63016;SDS011;50274;45.640;11.756;2024-03-23T04:13:50;25.45;;;15.57;;
63016;SDS011;50274;45.640;11.756;2024-03-23T04:16:29;28.50;;;15.93;;
63016;SDS011;50274;45.640;11.756;2024-03-23T04:18:59;24.23;;;14.52;;
63016;SDS011;50274;45.640;11.756;2024-03-23T04:21:25;22.03;;;13.63;;
63016;SDS011;50274;45.640;11.756;2024-03-23T04:23:51;21.60;;;13.43;;
63016;SDS011;50274;45.640;11.756;2024-03-23T04:26:17;25.67;;;14.60;;
63016;SDS011;50274;45.640;11.756;2024-03-23T04:28:43;25.23;;;15.15;;
63016;SDS011;50274;45.640;11.756;2024-03-23T04:31:09;23.67;;;15.18;;
63016;SDS011;50274;45.640;11.756;2024-03-23T04:33:35;23.95;;;14.50;;
63016;SDS011;50274;45.640;11.756;2024-03-23T04:36:01;23.53;;;14.93;;
63016;SDS011;50274;45.640;11.756;2024-03-23T04:38:27;23.15;;;14.38;;
63016;SDS011;50274;45.640;11.756;2024-03-23T04:40:54;23.92;;;14.90;;
63016;SDS011;50274;45.640;11.756;2024-03-23T04:43:21;23.90;;;14.27;;
63016;SDS011;50274;45.640;11.756;2024-03-23T04:45:47;24.95;;;14.45;;
63016;SDS011;50274;45.640;11.756;2024-03-23T04:48:12;25.25;;;14.65;;
63016;SDS011;50274;45.640;11.756;2024-03-23T04:50:38;23.63;;;13.93;;
63016;SDS011;50274;45.640;11.756;2024-03-23T04:53:05;22.65;;;13.07;;
63016;SDS011;50274;45.640;11.756;2024-03-23T04:55:31;21.50;;;13.73;;
63016;SDS011;50274;45.640;11.756;2024-03-23T04:57:57;21.13;;;13.27;;
63016;SDS011;50274;45.640;11.756;2024-03-23T05:00:22;23.92;;;14.43;;
63016;SDS011;50274;45.640;11.756;2024-03-23T05:02:48;22.37;;;13.47;;
63016;SDS011;50274;45.640;11.756;2024-03-23T05:05:14;21.13;;;13.18;;
63016;SDS011;50274;45.640;11.756;2024-03-23T05:07:40;21.80;;;13.43;;
63016;SDS011;50274;45.640;11.756;2024-03-23T05:10:07;20.23;;;12.82;;
63016;SDS011;50274;45.640;11.756;2024-03-23T05:12:36;23.42;;;13.85;;
63016;SDS011;50274;45.640;11.756;2024-03-23T05:15:03;20.02;;;12.45;;
63016;SDS011;50274;45.640;11.756;2024-03-23T05:17:34;22.77;;;14.57;;
63016;SDS011;50274;45.640;11.756;2024-03-23T05:20:01;19.93;;;12.73;;
63016;SDS011;50274;45.640;11.756;2024-03-23T05:22:28;21.40;;;13.52;;
63016;SDS011;50274;45.640;11.756;2024-03-23T05:24:53;20.55;;;12.52;;
63016;SDS011;50274;45.640;11.756;2024-03-23T05:27:22;21.02;;;13.07;;
63016;SDS011;50274;45.640;11.756;2024-03-23T05:29:48;23.73;;;13.17;;
63016;SDS011;50274;45.640;11.756;2024-03-23T05:32:14;19.98;;;12.88;;
63016;SDS011;50274;45.640;11.756;2024-03-23T05:34:40;24.67;;;14.13;;
63016;SDS011;50274;45.640;11.756;2024-03-23T05:37:05;21.67;;;13.38;;
63016;SDS011;50274;45.640;11.756;2024-03-23T05:39:31;20.17;;;12.43;;
63016;SDS011;50274;45.640;11.756;2024-03-23T05:41:57;18.37;;;12.17;;
63016;SDS011;50274;45.640;11.756;2024-03-23T05:44:23;21.02;;;12.68;;
63016;SDS011;50274;45.640;11.756;2024-03-23T05:46:48;18.80;;;12.20;;
63016;SDS011;50274;45.640;11.756;2024-03-23T05:49:15;17.95;;;12.02;;
63016;SDS011;50274;45.640;11.756;2024-03-23T05:51:43;20.92;;;12.68;;
63016;SDS011;50274;45.640;11.756;2024-03-23T05:54:08;21.37;;;12.40;;
63016;SDS011;50274;45.640;11.756;2024-03-23T05:56:34;17.65;;;11.18;;
63016;SDS011;50274;45.640;11.756;2024-03-23T05:59:00;18.02;;;11.52;;
63016;SDS011;50274;45.640;11.756;2024-03-23T06:01:28;20.73;;;12.70;;
63016;SDS011;50274;45.640;11.756;2024-03-23T06:03:57;20.77;;;11.60;;
63016;SDS011;50274;45.640;11.756;2024-03-23T06:06:23;18.90;;;12.27;;
63016;SDS011;50274;45.640;11.756;2024-03-23T06:08:49;20.63;;;12.03;;
63016;SDS011;50274;45.640;11.756;2024-03-23T06:11:14;19.00;;;11.85;;
63016;SDS011;50274;45.640;11.756;2024-03-23T06:13:40;21.53;;;12.93;;
63016;SDS011;50274;45.640;11.756;2024-03-23T06:16:06;21.88;;;13.25;;
63016;SDS011;50274;45.640;11.756;2024-03-23T06:18:32;21.03;;;12.83;;
63016;SDS011;50274;45.640;11.756;2024-03-23T06:20:58;20.57;;;12.90;;
63016;SDS011;50274;45.640;11.756;2024-03-23T06:23:23;20.23;;;12.30;;
63016;SDS011;50274;45.640;11.756;2024-03-23T06:25:49;22.02;;;13.10;;
63016;SDS011;50274;45.640;11.756;2024-03-23T06:28:15;19.97;;;12.67;;
63016;SDS011;50274;45.640;11.756;2024-03-23T06:30:41;23.17;;;14.48;;
63016;SDS011;50274;45.640;11.756;2024-03-23T06:33:07;21.50;;;13.50;;
63016;SDS011;50274;45.640;11.756;2024-03-23T06:35:32;22.67;;;13.85;;
63016;SDS011;50274;45.640;11.756;2024-03-23T06:37:58;22.63;;;12.83;;
63016;SDS011;50274;45.640;11.756;2024-03-23T06:40:24;20.45;;;12.52;;
63016;SDS011;50274;45.640;11.756;2024-03-23T06:42:50;20.70;;;12.98;;
63016;SDS011;50274;45.640;11.756;2024-03-23T06:45:16;18.13;;;11.47;;
63016;SDS011;50274;45.640;11.756;2024-03-23T06:47:44;21.38;;;12.75;;
63016;SDS011;50274;45.640;11.756;2024-03-23T06:50:10;21.20;;;12.57;;
63016;SDS011;50274;45.640;11.756;2024-03-23T06:52:36;20.65;;;12.27;;
63016;SDS011;50274;45.640;11.756;2024-03-23T06:55:02;18.92;;;12.60;;
63016;SDS011;50274;45.640;11.756;2024-03-23T06:57:29;22.83;;;12.40;;
63016;SDS011;50274;45.640;11.756;2024-03-23T06:59:55;21.40;;;12.50;;
63016;SDS011;50274;45.640;11.756;2024-03-23T07:02:21;19.20;;;11.32;;
63016;SDS011;50274;45.640;11.756;2024-03-23T07:04:47;19.73;;;11.37;;
63016;SDS011;50274;45.640;11.756;2024-03-23T07:07:12;22.92;;;13.43;;
63016;SDS011;50274;45.640;11.756;2024-03-23T07:09:38;21.57;;;12.40;;
63016;SDS011;50274;45.640;11.756;2024-03-23T07:12:04;19.40;;;11.48;;
63016;SDS011;50274;45.640;11.756;2024-03-23T07:14:30;18.02;;;10.73;;
63016;SDS011;50274;45.640;11.756;2024-03-23T07:16:56;20.30;;;12.82;;
63016;SDS011;50274;45.640;11.756;2024-03-23T07:19:22;20.50;;;12.93;;
63016;SDS011;50274;45.640;11.756;2024-03-23T07:21:49;23.73;;;14.32;;
63016;SDS011;50274;45.640;11.756;2024-03-23T07:24:15;28.77;;;15.52;;
63016;SDS011;50274;45.640;11.756;2024-03-23T07:26:41;24.43;;;14.67;;
63016;SDS011;50274;45.640;11.756;2024-03-23T07:29:08;25.48;;;16.30;;
63016;SDS011;50274;45.640;11.756;2024-03-23T07:31:34;27.30;;;17.20;;
63016;SDS011;50274;45.640;11.756;2024-03-23T07:34:00;32.57;;;18.70;;
63016;SDS011;50274;45.640;11.756;2024-03-23T07:36:26;28.80;;;16.48;;
63016;SDS011;50274;45.640;11.756;2024-03-23T07:38:52;31.07;;;17.60;;
63016;SDS011;50274;45.640;11.756;2024-03-23T07:41:18;34.87;;;19.60;;
63016;SDS011;50274;45.640;11.756;2024-03-23T07:43:46;30.17;;;18.88;;
63016;SDS011;50274;45.640;11.756;2024-03-23T07:46:12;33.88;;;19.33;;
63016;SDS011;50274;45.640;11.756;2024-03-23T07:48:40;31.52;;;17.83;;
63016;SDS011;50274;45.640;11.756;2024-03-23T07:51:09;31.23;;;18.30;;
63016;SDS011;50274;45.640;11.756;2024-03-23T07:53:37;30.27;;;18.70;;
63016;SDS011;50274;45.640;11.756;2024-03-23T07:56:04;36.38;;;19.55;;
63016;SDS011;50274;45.640;11.756;2024-03-23T07:58:32;28.80;;;17.63;;
63016;SDS011;50274;45.640;11.756;2024-03-23T08:01:04;31.83;;;18.90;;
63016;SDS011;50274;45.640;11.756;2024-03-23T08:03:34;33.40;;;19.67;;
63016;SDS011;50274;45.640;11.756;2024-03-23T08:06:07;29.13;;;18.37;;
63016;SDS011;50274;45.640;11.756;2024-03-23T08:08:40;31.42;;;18.15;;
63016;SDS011;50274;45.640;11.756;2024-03-23T08:11:07;31.35;;;18.58;;
63016;SDS011;50274;45.640;11.756;2024-03-23T08:13:33;31.38;;;19.50;;
63016;SDS011;50274;45.640;11.756;2024-03-23T08:16:00;29.92;;;19.20;;
63016;SDS011;50274;45.640;11.756;2024-03-23T08:18:27;32.03;;;19.57;;
63016;SDS011;50274;45.640;11.756;2024-03-23T08:20:59;29.67;;;19.05;;
63016;SDS011;50274;45.640;11.756;2024-03-23T08:23:30;31.23;;;19.02;;
63016;SDS011;50274;45.640;11.756;2024-03-23T08:26:01;30.60;;;19.48;;
63016;SDS011;50274;45.640;11.756;2024-03-23T08:28:38;36.95;;;20.05;;
63016;SDS011;50274;45.640;11.756;2024-03-23T08:31:04;30.03;;;19.13;;
63016;SDS011;50274;45.640;11.756;2024-03-23T08:33:32;32.75;;;20.98;;
63016;SDS011;50274;45.640;11.756;2024-03-23T08:35:58;33.67;;;20.13;;
63016;SDS011;50274;45.640;11.756;2024-03-23T08:38:26;32.15;;;18.77;;
63016;SDS011;50274;45.640;11.756;2024-03-23T08:41:11;33.05;;;20.58;;
63016;SDS011;50274;45.640;11.756;2024-03-23T08:43:40;35.60;;;19.67;;
63016;SDS011;50274;45.640;11.756;2024-03-23T08:46:07;35.83;;;20.42;;
63016;SDS011;50274;45.640;11.756;2024-03-23T08:48:35;31.73;;;19.08;;
63016;SDS011;50274;45.640;11.756;2024-03-23T08:51:02;30.40;;;18.88;;
63016;SDS011;50274;45.640;11.756;2024-03-23T08:53:29;31.02;;;18.17;;
63016;SDS011;50274;45.640;11.756;2024-03-23T08:55:59;29.90;;;18.37;;
63016;SDS011;50274;45.640;11.756;2024-03-23T08:58:26;31.38;;;19.83;;
63016;SDS011;50274;45.640;11.756;2024-03-23T09:00:53;32.45;;;19.00;;
63016;SDS011;50274;45.640;11.756;2024-03-23T09:03:26;30.02;;;18.90;;
63016;SDS011;50274;45.640;11.756;2024-03-23T09:05:52;30.35;;;19.60;;
63016;SDS011;50274;45.640;11.756;2024-03-23T09:08:19;28.30;;;18.80;;
63016;SDS011;50274;45.640;11.756;2024-03-23T09:10:46;29.50;;;18.33;;
63016;SDS011;50274;45.640;11.756;2024-03-23T09:13:12;33.22;;;19.10;;
63016;SDS011;50274;45.640;11.756;2024-03-23T09:15:45;30.52;;;18.60;;
63016;SDS011;50274;45.640;11.756;2024-03-23T09:18:15;31.90;;;17.75;;
63016;SDS011;50274;45.640;11.756;2024-03-23T09:20:41;29.40;;;18.07;;
63016;SDS011;50274;45.640;11.756;2024-03-23T09:23:07;31.17;;;18.98;;
63016;SDS011;50274;45.640;11.756;2024-03-23T09:25:36;28.42;;;18.30;;
63016;SDS011;50274;45.640;11.756;2024-03-23T09:28:04;29.33;;;18.52;;
63016;SDS011;50274;45.640;11.756;2024-03-23T09:30:32;28.67;;;17.87;;
63016;SDS011;50274;45.640;11.756;2024-03-23T09:33:02;33.25;;;18.88;;
63016;SDS011;50274;45.640;11.756;2024-03-23T09:35:28;30.83;;;18.83;;
63016;SDS011;50274;45.640;11.756;2024-03-23T09:37:54;29.67;;;18.60;;
63016;SDS011;50274;45.640;11.756;2024-03-23T09:40:20;26.47;;;17.73;;
63016;SDS011;50274;45.640;11.756;2024-03-23T09:42:49;32.30;;;19.27;;
63016;SDS011;50274;45.640;11.756;2024-03-23T09:46:01;30.35;;;18.63;;
63016;SDS011;50274;45.640;11.756;2024-03-23T09:48:08;27.70;;;16.93;;
63016;SDS011;50274;45.640;11.756;2024-03-23T09:50:41;30.30;;;18.95;;
63016;SDS011;50274;45.640;11.756;2024-03-23T09:53:08;27.02;;;17.77;;
63016;SDS011;50274;45.640;11.756;2024-03-23T09:55:42;29.52;;;18.23;;
63016;SDS011;50274;45.640;11.756;2024-03-23T09:58:12;27.05;;;17.75;;
63016;SDS011;50274;45.640;11.756;2024-03-23T10:00:39;29.67;;;16.97;;
63016;SDS011;50274;45.640;11.756;2024-03-23T10:03:05;29.42;;;18.13;;
63016;SDS011;50274;45.640;11.756;2024-03-23T10:05:47;30.08;;;18.42;;
63016;SDS011;50274;45.640;11.756;2024-03-23T10:08:31;27.27;;;17.48;;
63016;SDS011;50274;45.640;11.756;2024-03-23T10:10:58;28.03;;;17.67;;
63016;SDS011;50274;45.640;11.756;2024-03-23T10:13:44;27.50;;;17.75;;
63016;SDS011;50274;45.640;11.756;2024-03-23T10:16:11;27.48;;;17.58;;
63016;SDS011;50274;45.640;11.756;2024-03-23T10:18:38;27.15;;;17.10;;
63016;SDS011;50274;45.640;11.756;2024-03-23T10:23:30;26.30;;;16.87;;
63016;SDS011;50274;45.640;11.756;2024-03-23T10:26:18;26.35;;;16.63;;
63016;SDS011;50274;45.640;11.756;2024-03-23T10:28:59;28.15;;;17.83;;
63016;SDS011;50274;45.640;11.756;2024-03-23T10:31:29;28.38;;;18.48;;
63016;SDS011;50274;45.640;11.756;2024-03-23T10:33:56;27.43;;;17.87;;
63016;SDS011;50274;45.640;11.756;2024-03-23T10:36:22;25.67;;;16.77;;
63016;SDS011;50274;45.640;11.756;2024-03-23T10:38:49;24.60;;;16.15;;
63016;SDS011;50274;45.640;11.756;2024-03-23T10:41:16;27.13;;;17.30;;
63016;SDS011;50274;45.640;11.756;2024-03-23T10:43:44;25.47;;;17.00;;
63016;SDS011;50274;45.640;11.756;2024-03-23T10:46:13;25.77;;;17.25;;
63016;SDS011;50274;45.640;11.756;2024-03-23T10:48:40;28.88;;;17.75;;
63016;SDS011;50274;45.640;11.756;2024-03-23T10:51:07;28.83;;;17.58;;
63016;SDS011;50274;45.640;11.756;2024-03-23T10:53:34;24.92;;;16.10;;
63016;SDS011;50274;45.640;11.756;2024-03-23T10:56:00;26.83;;;16.67;;
63016;SDS011;50274;45.640;11.756;2024-03-23T10:58:37;27.15;;;18.10;;
63016;SDS011;50274;45.640;11.756;2024-03-23T11:01:05;31.75;;;19.40;;
63016;SDS011;50274;45.640;11.756;2024-03-23T11:03:32;29.08;;;17.80;;
63016;SDS011;50274;45.640;11.756;2024-03-23T11:05:59;30.80;;;18.73;;
63016;SDS011;50274;45.640;11.756;2024-03-23T11:08:36;27.13;;;17.30;;
63016;SDS011;50274;45.640;11.756;2024-03-23T11:13:54;27.17;;;16.77;;
63016;SDS011;50274;45.640;11.756;2024-03-23T11:16:24;29.75;;;16.95;;
63016;SDS011;50274;45.640;11.756;2024-03-23T11:18:58;26.63;;;17.20;;
63016;SDS011;50274;45.640;11.756;2024-03-23T11:22:00;24.90;;;16.73;;
63016;SDS011;50274;45.640;11.756;2024-03-23T11:24:26;28.58;;;18.00;;
63016;SDS011;50274;45.640;11.756;2024-03-23T11:26:53;26.85;;;17.40;;
63016;SDS011;50274;45.640;11.756;2024-03-23T11:29:18;26.40;;;16.80;;
63016;SDS011;50274;45.640;11.756;2024-03-23T11:31:48;25.63;;;17.02;;
63016;SDS011;50274;45.640;11.756;2024-03-23T11:34:15;28.10;;;17.92;;
63016;SDS011;50274;45.640;11.756;2024-03-23T11:36:42;29.60;;;18.60;;
63016;SDS011;50274;45.640;11.756;2024-03-23T11:39:11;26.60;;;16.87;;
63016;SDS011;50274;45.640;11.756;2024-03-23T11:41:48;25.13;;;16.40;;
63016;SDS011;50274;45.640;11.756;2024-03-23T11:44:18;30.00;;;20.25;;
63016;SDS011;50274;45.640;11.756;2024-03-23T11:46:45;27.00;;;18.20;;
63016;SDS011;50274;45.640;11.756;2024-03-23T11:49:21;26.40;;;17.15;;
63016;SDS011;50274;45.640;11.756;2024-03-23T11:51:52;36.17;;;20.30;;
63016;SDS011;50274;45.640;11.756;2024-03-23T11:54:26;30.65;;;18.83;;
63016;SDS011;50274;45.640;11.756;2024-03-23T11:56:58;26.63;;;17.48;;
63016;SDS011;50274;45.640;11.756;2024-03-23T11:59:39;28.65;;;18.88;;
63016;SDS011;50274;45.640;11.756;2024-03-23T12:02:06;28.75;;;19.27;;
63016;SDS011;50274;45.640;11.756;2024-03-23T12:04:39;26.53;;;18.10;;
63016;SDS011;50274;45.640;11.756;2024-03-23T12:07:12;27.08;;;18.67;;
63016;SDS011;50274;45.640;11.756;2024-03-23T12:09:47;26.80;;;18.40;;
63016;SDS011;50274;45.640;11.756;2024-03-23T12:12:34;28.25;;;18.88;;
63016;SDS011;50274;45.640;11.756;2024-03-23T12:15:06;28.67;;;18.45;;
63016;SDS011;50274;45.640;11.756;2024-03-23T12:17:33;31.13;;;19.70;;
63016;SDS011;50274;45.640;11.756;2024-03-23T12:20:00;26.63;;;18.15;;
63016;SDS011;50274;45.640;11.756;2024-03-23T12:22:27;27.60;;;18.35;;
63016;SDS011;50274;45.640;11.756;2024-03-23T12:24:54;35.75;;;20.55;;
63016;SDS011;50274;45.640;11.756;2024-03-23T12:27:20;28.13;;;18.30;;
63016;SDS011;50274;45.640;11.756;2024-03-23T12:29:46;25.23;;;16.48;;
63016;SDS011;50274;45.640;11.756;2024-03-23T12:32:13;28.35;;;17.75;;
63016;SDS011;50274;45.640;11.756;2024-03-23T12:34:39;34.08;;;20.52;;
63016;SDS011;50274;45.640;11.756;2024-03-23T12:37:06;27.58;;;18.00;;
63016;SDS011;50274;45.640;11.756;2024-03-23T12:39:32;28.13;;;18.10;;
63016;SDS011;50274;45.640;11.756;2024-03-23T12:42:00;29.95;;;19.23;;
63016;SDS011;50274;45.640;11.756;2024-03-23T12:44:28;30.20;;;18.95;;
63016;SDS011;50274;45.640;11.756;2024-03-23T12:46:54;24.77;;;16.13;;
63016;SDS011;50274;45.640;11.756;2024-03-23T12:49:20;32.10;;;19.03;;
63016;SDS011;50274;45.640;11.756;2024-03-23T12:51:55;30.50;;;17.52;;
63016;SDS011;50274;45.640;11.756;2024-03-23T12:54:21;26.92;;;16.63;;
63016;SDS011;50274;45.640;11.756;2024-03-23T12:56:50;26.23;;;17.33;;
63016;SDS011;50274;45.640;11.756;2024-03-23T12:59:16;25.40;;;16.73;;
63016;SDS011;50274;45.640;11.756;2024-03-23T13:01:43;25.02;;;15.60;;
63016;SDS011;50274;45.640;11.756;2024-03-23T13:04:09;20.63;;;13.68;;
63016;SDS011;50274;45.640;11.756;2024-03-23T13:06:36;28.00;;;18.65;;
63016;SDS011;50274;45.640;11.756;2024-03-23T13:09:02;32.23;;;21.20;;
63016;SDS011;50274;45.640;11.756;2024-03-23T13:11:28;26.10;;;18.15;;
63016;SDS011;50274;45.640;11.756;2024-03-23T13:13:54;25.10;;;17.48;;
63016;SDS011;50274;45.640;11.756;2024-03-23T13:16:20;29.15;;;18.65;;
63016;SDS011;50274;45.640;11.756;2024-03-23T13:18:46;29.20;;;18.38;;
63016;SDS011;50274;45.640;11.756;2024-03-23T13:21:12;26.13;;;16.63;;
63016;SDS011;50274;45.640;11.756;2024-03-23T13:23:38;29.45;;;18.52;;
63016;SDS011;50274;45.640;11.756;2024-03-23T13:26:07;27.30;;;17.27;;
63016;SDS011;50274;45.640;11.756;2024-03-23T13:28:33;27.60;;;19.07;;
63016;SDS011;50274;45.640;11.756;2024-03-23T13:31:00;27.20;;;17.73;;
63016;SDS011;50274;45.640;11.756;2024-03-23T13:33:28;21.98;;;14.65;;
63016;SDS011;50274;45.640;11.756;2024-03-23T13:35:57;25.20;;;15.77;;
63016;SDS011;50274;45.640;11.756;2024-03-23T13:38:23;24.60;;;16.13;;
63016;SDS011;50274;45.640;11.756;2024-03-23T13:40:56;25.67;;;16.50;;
63016;SDS011;50274;45.640;11.756;2024-03-23T13:43:24;26.05;;;16.92;;
63016;SDS011;50274;45.640;11.756;2024-03-23T13:45:54;25.98;;;17.23;;
63016;SDS011;50274;45.640;11.756;2024-03-23T13:48:22;29.95;;;18.50;;
63016;SDS011;50274;45.640;11.756;2024-03-23T13:50:56;28.42;;;18.05;;
63016;SDS011;50274;45.640;11.756;2024-03-23T13:53:26;26.00;;;16.50;;
63016;SDS011;50274;45.640;11.756;2024-03-23T13:55:52;26.40;;;16.73;;
63016;SDS011;50274;45.640;11.756;2024-03-23T13:58:18;27.90;;;17.75;;
63016;SDS011;50274;45.640;11.756;2024-03-23T14:00:44;23.20;;;14.93;;
63016;SDS011;50274;45.640;11.756;2024-03-23T14:03:11;24.23;;;14.35;;
63016;SDS011;50274;45.640;11.756;2024-03-23T14:05:37;25.37;;;15.60;;
63016;SDS011;50274;45.640;11.756;2024-03-23T14:08:07;25.20;;;15.55;;
63016;SDS011;50274;45.640;11.756;2024-03-23T14:10:34;23.60;;;15.40;;
63016;SDS011;50274;45.640;11.756;2024-03-23T14:13:03;27.17;;;17.08;;
63016;SDS011;50274;45.640;11.756;2024-03-23T14:15:30;24.48;;;15.00;;
63016;SDS011;50274;45.640;11.756;2024-03-23T14:17:56;23.60;;;15.20;;
63016;SDS011;50274;45.640;11.756;2024-03-23T14:20:22;21.88;;;14.32;;
63016;SDS011;50274;45.640;11.756;2024-03-23T14:22:51;25.58;;;14.98;;
63016;SDS011;50274;45.640;11.756;2024-03-23T14:25:19;22.90;;;13.73;;
63016;SDS011;50274;45.640;11.756;2024-03-23T14:27:47;19.87;;;12.80;;
63016;SDS011;50274;45.640;11.756;2024-03-23T14:30:13;23.63;;;14.88;;
63016;SDS011;50274;45.640;11.756;2024-03-23T14:32:39;23.58;;;14.05;;
63016;SDS011;50274;45.640;11.756;2024-03-23T14:35:05;22.50;;;13.18;;
63016;SDS011;50274;45.640;11.756;2024-03-23T14:37:38;24.00;;;15.23;;
63016;SDS011;50274;45.640;11.756;2024-03-23T14:40:07;27.52;;;16.30;;
63016;SDS011;50274;45.640;11.756;2024-03-23T14:42:33;22.13;;;14.18;;
63016;SDS011;50274;45.640;11.756;2024-03-23T14:45:02;25.13;;;15.10;;
63016;SDS011;50274;45.640;11.756;2024-03-23T14:47:28;23.92;;;14.35;;
63016;SDS011;50274;45.640;11.756;2024-03-23T14:49:54;23.83;;;14.93;;
63016;SDS011;50274;45.640;11.756;2024-03-23T14:52:19;25.88;;;15.15;;
63016;SDS011;50274;45.640;11.756;2024-03-23T14:54:45;23.07;;;14.17;;
63016;SDS011;50274;45.640;11.756;2024-03-23T14:57:12;21.60;;;14.05;;
63016;SDS011;50274;45.640;11.756;2024-03-23T14:59:38;28.13;;;16.42;;
63016;SDS011;50274;45.640;11.756;2024-03-23T15:02:13;29.13;;;18.73;;
63016;SDS011;50274;45.640;11.756;2024-03-23T15:04:38;36.15;;;21.65;;
63016;SDS011;50274;45.640;11.756;2024-03-23T15:07:07;33.03;;;20.07;;
63016;SDS011;50274;45.640;11.756;2024-03-23T15:09:32;30.63;;;17.40;;